Time;durP1;ratioP1;P1;durP2;ratioP2;P2;SDS_P1;SDS_P2;PMS_P1;PMS_P2;Temp;Humidity;BMP_temperature;BMP_pressure;BME280_temperature;BME280_humidity;BME280_pressure;Samples;Min_cycle;Max_cycle;Signal;HPM_P1;HPM_P2
2022/11/16 00:01:00;;;;;;;169.40;30.67;;;;;;;10.92;59.79;99122.44;4376959;32;20131;-92
2022/11/16 00:03:26;;;;;;;159.48;29.42;;;;;;;10.75;59.77;99115.34;4364681;32;20111;-90
2022/11/16 00:05:58;;;;;;;107.95;27.85;;;;;;;10.89;59.78;99112.16;4374489;32;20137;-93
2022/11/16 00:08:23;;;;;;;78.35;28.65;;;;;;;10.88;59.78;99109.59;4364999;32;20158;-92
2022/11/16 00:10:49;;;;;;;132.30;29.70;;;;;;;10.96;59.78;99103.16;4364545;32;20170;-92
2022/11/16 00:13:14;;;;;;;111.75;30.15;;;;;;;10.84;59.79;99108.03;4365324;32;20102;-91
2022/11/16 00:15:40;;;;;;;108.57;28.95;;;;;;;10.76;59.77;99103.19;4364285;32;20161;-92
2022/11/16 00:18:05;;;;;;;83.68;27.65;;;;;;;10.82;59.78;99102.91;4375925;32;22256;-91
2022/11/16 00:20:31;;;;;;;206.00;30.40;;;;;;;10.81;59.77;99101.22;4351089;32;22000;-92
2022/11/16 00:22:56;;;;;;;130.70;28.87;;;;;;;10.81;59.77;99100.38;4376447;32;20162;-91
2022/11/16 00:25:22;;;;;;;137.95;29.45;;;;;;;10.71;59.77;99098.19;4374630;32;20125;-92
2022/11/16 00:27:47;;;;;;;148.57;29.65;;;;;;;10.77;59.78;99091.84;4378050;32;20140;-93
2022/11/16 00:30:16;;;;;;;145.27;29.27;;;;;;;10.90;59.78;99089.56;4366912;32;20130;-90
2022/11/16 00:32:41;;;;;;;136.20;27.42;;;;;;;10.85;59.77;99091.50;4361450;32;20158;-91
2022/11/16 00:35:07;;;;;;;128.23;27.05;;;;;;;10.68;59.77;99082.69;4374356;32;25481;-91
2022/11/16 00:37:32;;;;;;;154.30;27.35;;;;;;;10.83;59.77;99088.97;4376934;32;20142;-90
2022/11/16 00:39:58;;;;;;;112.10;27.27;;;;;;;10.73;59.77;99085.94;4376249;32;24064;-91
2022/11/16 00:42:23;;;;;;;76.10;25.77;;;;;;;10.68;59.76;99080.09;4364063;32;20506;-90
2022/11/16 00:44:48;;;;;;;156.35;29.08;;;;;;;10.83;59.77;99072.50;4376839;32;20102;-91
2022/11/16 00:47:14;;;;;;;77.35;25.90;;;;;;;10.81;59.77;99076.94;4373965;32;24846;-91
2022/11/16 00:49:39;;;;;;;119.25;26.58;;;;;;;10.79;59.77;99069.19;4374424;32;20115;-91
2022/11/16 00:52:05;;;;;;;88.90;25.30;;;;;;;10.82;59.78;99065.59;4374637;32;20125;-91
2022/11/16 00:54:31;;;;;;;88.53;23.92;;;;;;;10.76;59.77;99059.75;4374426;32;20144;-91
2022/11/16 00:56:56;;;;;;;92.70;25.45;;;;;;;10.71;59.77;99053.91;4365212;32;20142;-91
2022/11/16 00:59:22;;;;;;;162.25;27.23;;;;;;;10.86;59.78;99052.38;4378352;32;20516;-91
2022/11/16 01:01:47;;;;;;;132.15;26.92;;;;;;;10.81;59.77;99049.16;4364081;32;25353;-91
2022/11/16 01:04:12;;;;;;;192.40;28.00;;;;;;;10.86;59.78;99043.72;4372528;32;20247;-91
2022/11/16 01:06:38;;;;;;;108.40;25.65;;;;;;;10.75;59.77;99044.22;4374516;32;20087;-92
2022/11/16 01:09:03;;;;;;;113.37;25.23;;;;;;;10.79;59.77;99042.31;4362267;32;20143;-92
2022/11/16 01:14:13;;;;;;;104.60;24.80;;;;;;;10.80;59.77;99050.06;4372050;32;20772;-91
2022/11/16 01:16:38;;;;;;;120.03;26.08;;;;;;;10.67;59.77;99038.50;4367566;32;20086;-92
2022/11/16 01:19:03;;;;;;;147.75;27.15;;;;;;;10.85;59.77;99031.63;4383663;32;23238;-90
2022/11/16 01:21:29;;;;;;;145.70;25.83;;;;;;;10.80;59.77;99020.56;4376566;32;20103;-92
2022/11/16 01:23:55;;;;;;;123.35;25.42;;;;;;;10.77;59.78;99029.38;4352108;32;20102;-90
2022/11/16 01:26:21;;;;;;;80.22;25.70;;;;;;;10.72;59.77;99015.72;4366316;32;20175;-91
2022/11/16 01:28:47;;;;;;;126.60;27.17;;;;;;;10.80;59.77;99015.38;4376976;32;20558;-92
2022/11/16 01:31:12;;;;;;;121.22;25.65;;;;;;;10.82;59.77;99011.78;4376461;32;20141;-92
2022/11/16 01:33:38;;;;;;;137.75;26.90;;;;;;;10.84;59.77;99011.72;4361969;32;20102;-92
2022/11/16 01:36:09;;;;;;;93.72;24.55;;;;;;;10.77;59.78;99001.59;4361969;32;20122;-92
2022/11/16 01:38:34;;;;;;;158.93;27.40;;;;;;;10.75;59.77;99006.00;4364485;32;20114;-91
2022/11/16 01:41:00;;;;;;;112.53;25.37;;;;;;;10.85;59.77;99000.38;4368959;32;20155;-92
2022/11/16 01:43:26;;;;;;;99.28;25.60;;;;;;;10.80;59.77;98999.75;4363898;32;20118;-90
2022/11/16 01:45:52;;;;;;;138.48;26.62;;;;;;;10.80;59.77;98994.53;4374829;32;20770;-93
2022/11/16 01:48:27;;;;;;;114.90;26.00;;;;;;;10.74;59.77;98986.09;4364673;32;20107;-93
2022/11/16 01:50:55;;;;;;;94.57;24.63;;;;;;;10.89;59.78;98981.13;4362650;32;20114;-93
2022/11/16 01:53:21;;;;;;;73.68;24.52;;;;;;;10.85;59.78;98980.41;4365017;32;20090;-93
2022/11/16 01:55:46;;;;;;;86.03;24.73;;;;;;;10.82;59.77;98977.09;4367257;32;20124;-94
2022/11/16 01:58:17;;;;;;;104.93;25.27;;;;;;;10.82;59.78;98977.09;4381011;32;20103;-92
2022/11/16 02:00:45;;;;;;;60.22;23.35;;;;;;;10.88;59.78;98977.66;4374176;32;20178;-93
2022/11/16 02:03:10;;;;;;;85.30;24.27;;;;;;;10.90;59.78;98970.66;4361474;32;20124;-93
2022/11/16 02:06:18;;;;;;;65.97;24.00;;;;;;;10.84;59.77;98968.31;4361391;32;20126;-93
2022/11/16 02:11:58;;;;;;;80.55;24.60;;;;;;;10.84;59.77;98960.50;4381980;32;20819;-93
2022/11/16 02:14:45;;;;;;;62.08;24.08;;;;;;;10.94;59.78;98963.53;4387122;32;20098;-94
2022/11/16 02:17:31;;;;;;;74.22;23.58;;;;;;;11.00;59.79;98958.03;4386666;32;20088;-93
2022/11/16 02:20:28;;;;;;;113.28;22.13;;;;;;;10.85;59.78;98956.97;4373865;32;20864;-93
2022/11/16 02:23:12;;;;;;;60.90;23.08;;;;;;;11.01;59.79;98951.91;4379867;32;21012;-93
2022/11/16 02:25:51;;;;;;;77.97;22.00;;;;;;;10.97;59.78;98953.81;4387135;32;20098;-93
2022/11/16 02:32:08;;;;;;;89.78;21.27;;;;;;;11.05;59.78;98937.81;4379514;32;20487;-93
2022/11/16 02:34:41;;;;;;;96.63;22.35;;;;;;;11.02;59.79;98937.97;4381803;32;20147;-93
2022/11/16 02:37:07;;;;;;;72.65;20.45;;;;;;;10.92;59.79;98932.38;4389112;32;20087;-92
2022/11/16 02:39:33;;;;;;;80.87;22.23;;;;;;;11.07;59.79;98933.37;4363447;32;20098;-92
2022/11/16 02:41:58;;;;;;;101.00;23.15;;;;;;;10.95;59.78;98923.56;4374006;32;20162;-93
2022/11/16 02:44:37;;;;;;;99.82;22.02;;;;;;;10.91;59.77;98922.88;4363141;32;20147;-93
2022/11/16 02:47:06;;;;;;;75.03;23.00;;;;;;;11.02;59.79;98920.59;4366690;32;20125;-94
2022/11/16 02:49:39;;;;;;;65.43;21.65;;;;;;;11.08;59.79;98924.66;4363074;32;20799;-93
2022/11/16 02:52:07;;;;;;;104.70;22.13;;;;;;;11.04;59.78;98918.75;4365557;32;20107;-93
2022/11/16 02:54:35;;;;;;;60.63;21.02;;;;;;;10.98;59.78;98926.03;4363118;32;20823;-93
2022/11/16 02:57:03;;;;;;;60.55;21.33;;;;;;;11.03;59.79;98918.81;4366123;32;20113;-93
2022/11/16 02:59:42;;;;;;;54.88;19.80;;;;;;;11.08;59.79;98909.88;4385972;32;148328;-92
2022/11/16 03:02:42;;;;;;;63.85;22.35;;;;;;;10.95;59.78;98908.78;4350407;32;20091;-93
2022/11/16 03:05:43;;;;;;;82.22;21.75;;;;;;;11.13;59.79;98904.47;4392357;32;20115;-93
2022/11/16 03:08:17;;;;;;;54.45;20.15;;;;;;;11.02;59.79;98904.97;4358736;32;20113;-94
2022/11/16 03:13:31;;;;;;;59.58;21.10;;;;;;;11.11;59.79;98913.25;4368770;32;20207;-92
2022/11/16 03:15:56;;;;;;;67.50;20.95;;;;;;;11.04;59.78;98907.50;4363929;32;20472;-94
2022/11/16 03:18:30;;;;;;;78.72;22.15;;;;;;;11.06;59.79;98900.44;4363895;32;20083;-93
2022/11/16 03:21:23;;;;;;;;;;;;;;;;;;;;;
2022/11/16 03:23:53;;;;;;;52.45;19.70;;;;;;;11.12;59.79;98894.09;4375153;32;35822;-93
2022/11/16 03:26:29;;;;;;;;;;;;;;;11.10;59.79;98895.94;4364720;32;20776;-93
2022/11/16 03:29:28;;;;;;;69.40;20.83;;;;;;;11.13;59.79;98883.63;4376646;32;20006;-93
2022/11/16 03:31:55;;;;;;;61.03;20.08;;;;;;;11.20;59.79;98887.63;4377924;32;20183;-91
2022/11/16 03:34:46;;;;;;;76.05;21.62;;;;;;;11.14;59.79;98876.66;4376321;32;20070;-94
2022/11/16 03:37:12;;;;;;;125.15;21.90;;;;;;;11.08;59.79;98872.56;4378406;32;20103;-92
2022/11/16 03:39:37;;;;;;;84.95;21.62;;;;;;;11.16;59.80;98877.44;4378818;32;21382;-94
2022/11/16 03:42:15;;;;;;;85.68;21.95;;;;;;;11.13;59.79;98870.63;4354139;32;20380;-94
2022/11/16 03:44:41;;;;;;;73.32;21.62;;;;;;;11.20;59.79;98868.53;4374064;32;20122;-94
2022/11/16 03:47:18;;;;;;;81.37;21.33;;;;;;;11.07;59.79;98866.53;4369425;32;20093;-95
2022/11/16 03:49:49;;;;;;;135.00;22.20;;;;;;;11.13;59.79;98862.81;4360081;32;20091;-94
2022/11/16 03:52:17;;;;;;;122.45;22.62;;;;;;;11.12;59.79;98861.12;4366983;32;20117;-92
2022/11/16 03:54:45;;;;;;;95.97;22.42;;;;;;;11.05;59.78;98857.94;4366337;32;20176;-94
2022/11/16 03:57:17;;;;;;;122.22;23.65;;;;;;;11.04;59.78;98860.63;4356161;32;20090;-94
2022/11/16 03:59:43;;;;;;;109.60;22.67;;;;;;;11.14;59.79;98854.06;4387109;32;20083;-93
2022/11/16 04:02:11;;;;;;;117.95;23.10;;;;;;;10.99;59.79;98850.44;4353630;32;20109;-94
2022/11/16 04:24:19;;;;;;;142.05;23.15;;;;;;;10.96;59.78;98832.34;4367820;32;20106;-93
2022/11/16 04:29:33;;;;;;;120.60;22.77;;;;;;;10.86;59.78;98831.09;4368022;32;20109;-94
2022/11/16 04:43:35;;;;;;;119.13;22.58;;;;;;;11.08;59.79;98812.66;4381070;32;20091;-92
2022/11/16 04:48:58;;;;;;;143.48;23.65;;;;;;;11.17;59.79;98816.59;4335217;32;20110;-93
2022/11/16 04:51:24;;;;;;;137.12;24.20;;;;;;;11.17;59.79;98809.63;4352575;32;20480;-93
2022/11/16 04:53:49;;;;;;;148.00;24.27;;;;;;;11.15;59.79;98801.06;4367484;32;20166;-91
2022/11/16 04:57:04;;;;;;;259.62;27.73;;;;;;;10.94;59.78;98813.38;4385491;32;23334;-93
2022/11/16 04:59:29;;;;;;;182.20;25.23;;;;;;;10.93;59.78;98816.03;4364390;32;20133;-92
2022/11/16 05:02:09;;;;;;;148.55;24.67;;;;;;;11.11;59.79;98809.91;4351470;32;20150;-91
2022/11/16 05:04:35;;;;;;;;;;;;;;;11.12;59.79;98809.03;4365231;32;20143;-90
2022/11/16 05:07:00;;;;;;;128.57;24.73;;;;;;;11.00;59.79;98802.63;4376540;32;20017;-91
2022/11/16 05:09:26;;;;;;;150.00;25.92;;;;;;;10.96;59.78;98806.31;4375263;32;20149;-90
2022/11/16 05:11:51;;;;;;;150.43;25.75;;;;;;;11.05;59.78;98799.81;4376263;32;20184;-90
2022/11/16 05:14:17;;;;;;;145.30;24.25;;;;;;;11.11;59.79;98802.09;4375946;32;20111;-92
2022/11/16 05:16:42;;;;;;;131.87;23.23;;;;;;;11.11;59.79;98802.09;4361770;32;20417;-92
2022/11/16 05:21:51;;;;;;;218.15;27.67;;;;;;;10.86;59.78;98807.66;4377019;32;20157;-92
2022/11/16 05:24:32;;;;;;;240.15;27.23;;;;;;;11.03;59.78;98799.88;4374893;32;20122;-93
2022/11/16 05:27:00;;;;;;;117.13;24.23;;;;;;;11.07;59.79;98797.97;4363011;32;20141;-93
2022/11/16 05:29:25;;;;;;;158.87;24.90;;;;;;;11.14;59.79;98785.50;4361945;32;20091;-91
2022/11/16 05:31:51;;;;;;;157.15;26.37;;;;;;;11.02;59.79;98785.19;4361847;32;20705;-92
2022/11/16 05:34:16;;;;;;;170.82;25.95;;;;;;;11.05;59.78;98792.00;4371246;32;31597;-92
2022/11/16 05:36:42;;;;;;;159.15;26.05;;;;;;;10.91;59.77;98792.69;4380238;32;20094;-92
2022/11/16 05:39:07;;;;;;;162.18;23.58;;;;;;;10.94;59.78;98796.91;4361904;32;23110;-93
2022/11/16 05:41:32;;;;;;;158.57;26.02;;;;;;;11.00;59.79;98776.59;4364134;32;20162;-91
2022/11/16 05:43:58;;;;;;;159.93;25.27;;;;;;;10.99;59.79;98772.31;4375900;32;20477;-91
2022/11/16 05:46:23;;;;;;;182.80;26.92;;;;;;;11.00;59.79;98770.56;4388891;32;20114;-91
2022/11/16 05:48:49;;;;;;;99.22;25.85;;;;;;;10.97;59.78;98766.34;4361062;32;20170;-90
2022/11/16 05:51:14;;;;;;;173.60;25.35;;;;;;;11.03;59.79;98770.41;4373800;32;20357;-90
2022/11/16 05:53:40;;;;;;;134.02;25.25;;;;;;;11.01;59.79;98767.03;4361935;32;20121;-90
2022/11/16 05:56:05;;;;;;;143.18;24.25;;;;;;;10.87;59.78;98774.66;4376152;32;20099;-91
2022/11/16 05:58:31;;;;;;;192.13;25.27;;;;;;;10.95;59.78;98764.72;4376133;32;20492;-90
2022/11/16 06:00:57;;;;;;;94.93;24.48;;;;;;;10.97;59.78;98766.34;4373924;32;20167;-91
2022/11/16 06:03:22;;;;;;;161.57;25.15;;;;;;;10.87;59.78;98764.25;4375951;32;20161;-90
2022/11/16 06:05:47;;;;;;;107.80;25.70;;;;;;;11.07;59.79;98769.31;4361085;32;25836;-93
2022/11/16 06:08:13;;;;;;;115.37;23.58;;;;;;;11.08;59.79;98768.41;4375359;32;20151;-92
2022/11/16 06:10:38;;;;;;;139.88;25.42;;;;;;;11.16;59.79;98761.06;4370418;32;20145;-92
2022/11/16 06:13:04;;;;;;;144.82;24.25;;;;;;;11.20;59.80;98766.97;4350672;32;20446;-91
2022/11/16 06:15:29;;;;;;;87.75;24.05;;;;;;;11.08;59.79;98763.19;4363624;32;20110;-92
2022/11/16 06:17:54;;;;;;;151.85;25.80;;;;;;;11.18;59.79;98768.81;4361218;32;20118;-92
2022/11/16 06:20:20;;;;;;;124.82;25.85;;;;;;;11.23;59.80;98772.00;4381051;32;20452;-92
2022/11/16 06:22:45;;;;;;;131.70;24.80;;;;;;;11.34;59.80;98764.47;4367671;32;26746;-91
2022/11/16 06:25:11;;;;;;;104.45;23.77;;;;;;;11.32;59.81;98754.16;4373470;32;20376;-91
2022/11/16 06:27:39;;;;;;;165.18;26.00;;;;;;;11.14;59.79;98759.47;4368913;32;26624;-92
2022/11/16 06:30:05;;;;;;;125.70;24.12;;;;;;;11.14;59.79;98756.84;4366251;32;20130;-92
2022/11/16 06:32:31;;;;;;;112.03;24.00;;;;;;;11.22;59.79;98755.53;4381719;32;20203;-91
2022/11/16 06:34:56;;;;;;;206.82;27.92;;;;;;;11.17;59.79;98754.09;4371538;32;20142;-91
2022/11/16 06:37:22;;;;;;;84.00;24.83;;;;;;;11.25;59.80;98754.53;4361556;32;20210;-92
2022/11/16 06:39:47;;;;;;;180.48;25.52;;;;;;;11.32;59.80;98745.47;4373780;32;20123;-92
2022/11/16 06:42:12;;;;;;;151.50;25.25;;;;;;;11.35;59.80;98750.53;4373236;32;20103;-91
2022/11/16 06:44:38;;;;;;;133.10;26.42;;;;;;;11.29;59.79;98750.84;4372454;32;20083;-89
2022/11/16 06:47:03;;;;;;;184.82;25.77;;;;;;;11.34;59.80;98743.63;4374303;32;20130;-89
2022/11/16 06:49:29;;;;;;;105.40;24.70;;;;;;;11.33;59.80;98739.34;4375116;32;25614;-91
2022/11/16 06:51:54;;;;;;;187.25;27.08;;;;;;;11.42;59.81;98735.44;4373725;32;20098;-91
2022/11/16 06:54:20;;;;;;;105.47;24.02;;;;;;;11.42;59.81;98727.63;4360513;32;20137;-92
2022/11/16 06:56:45;;;;;;;174.52;25.67;;;;;;;11.49;59.81;98732.44;4360031;32;23086;-91
2022/11/16 06:59:11;;;;;;;143.02;25.08;;;;;;;11.33;59.80;98736.75;4360351;32;20142;-91
2022/11/16 07:01:36;;;;;;;210.50;25.98;;;;;;;11.17;59.79;98730.66;4362818;32;20146;-92
2022/11/16 07:04:01;;;;;;;126.47;24.33;;;;;;;11.35;59.80;98725.31;4369975;32;20152;-91
2022/11/16 07:06:28;;;;;;;128.73;24.83;;;;;;;11.37;59.80;98727.87;4375094;32;20107;-90
2022/11/16 07:08:53;;;;;;;127.70;24.20;;;;;;;11.44;59.80;98724.03;4375460;32;20518;-91
2022/11/16 07:11:19;;;;;;;215.65;27.42;;;;;;;11.28;59.80;98729.16;4362688;32;20152;-91
2022/11/16 07:13:44;;;;;;;214.38;27.45;;;;;;;11.45;59.80;98723.09;4360483;32;20143;-91
2022/11/16 07:16:10;;;;;;;211.35;26.75;;;;;;;11.32;59.80;98722.03;4360491;32;20119;-91
2022/11/16 07:18:38;;;;;;;122.85;24.98;;;;;;;11.32;59.80;98716.81;4372776;32;20119;-92
2022/11/16 07:21:13;;;;;;;146.10;26.60;;;;;;;11.47;59.82;98720.41;4372499;32;20099;-91
2022/11/16 07:23:39;;;;;;;141.77;25.23;;;;;;;11.45;59.80;98715.28;4360243;32;20117;-91
2022/11/16 07:26:05;;;;;;;207.45;30.20;;;;;;;11.41;59.81;98710.31;4372537;32;20115;-91
2022/11/16 07:28:31;;;;;;;165.95;25.62;;;;;;;11.43;59.81;98711.91;4373535;32;20110;-92
2022/11/16 07:31:02;;;;;;;168.45;26.27;;;;;;;11.42;59.80;98712.84;4362223;32;20087;-91
2022/11/16 07:33:28;;;;;;;185.77;25.17;;;;;;;11.38;59.81;98713.94;4389432;32;20111;-91
2022/11/16 07:35:53;;;;;;;143.00;26.40;;;;;;;11.45;59.80;98704.03;4362083;32;20123;-91
2022/11/16 07:38:19;;;;;;;104.60;27.10;;;;;;;11.47;59.81;98707.38;4375488;32;20138;-92
2022/11/16 07:40:45;;;;;;;127.28;26.25;;;;;;;11.45;59.81;98709.22;4361923;32;20094;-92
2022/11/16 07:43:11;;;;;;;122.20;26.12;;;;;;;11.38;59.81;98703.50;4374808;32;20661;-91
2022/11/16 07:45:37;;;;;;;264.48;28.30;;;;;;;11.41;59.81;98705.09;4374611;32;20558;-91
2022/11/16 07:48:02;;;;;;;170.68;26.70;;;;;;;11.28;59.80;98699.69;4361902;32;20107;-92
2022/11/16 07:50:28;;;;;;;118.13;25.85;;;;;;;11.30;59.80;98697.81;4364213;32;20122;-91
2022/11/16 07:52:54;;;;;;;92.07;24.27;;;;;;;11.42;59.80;98694.59;4374605;32;20118;-91
2022/11/16 07:55:20;;;;;;;156.82;26.92;;;;;;;11.41;59.81;98692.09;4387996;32;20115;-92
2022/11/16 07:57:45;;;;;;;151.85;28.55;;;;;;;11.47;59.81;98689.16;4361972;32;20106;-91
2022/11/16 08:00:12;;;;;;;183.62;27.10;;;;;;;11.47;59.82;98686.53;4374297;32;20471;-91
2022/11/16 08:02:38;;;;;;;129.68;26.27;;;;;;;11.45;59.80;98688.38;4368192;32;20106;-91
2022/11/16 08:05:03;;;;;;;176.30;28.50;;;;;;;11.55;59.82;98684.34;4362310;32;20167;-91
2022/11/16 08:07:29;;;;;;;88.20;25.12;;;;;;;11.56;59.81;98683.44;4362300;32;20127;-92
2022/11/16 08:09:54;;;;;;;249.55;28.58;;;;;;;11.56;59.81;98683.44;4361868;32;20129;-92
2022/11/16 08:12:19;;;;;;;116.62;25.12;;;;;;;11.45;59.80;98678.81;4374777;32;20107;-91
2022/11/16 08:14:45;;;;;;;89.45;25.50;;;;;;;11.50;59.81;98681.16;4364165;32;20170;-91
2022/11/16 08:17:10;;;;;;;115.40;25.35;;;;;;;11.58;59.81;98687.63;4362221;32;20170;-92
2022/11/16 08:19:36;;;;;;;143.45;27.52;;;;;;;11.66;59.82;98695.06;4375198;32;20131;-92
2022/11/16 08:22:02;;;;;;;101.65;25.73;;;;;;;11.64;59.82;98689.94;4374465;32;20799;-91
2022/11/16 08:24:28;;;;;;;123.03;26.58;;;;;;;11.70;59.82;98688.78;4361985;32;20181;-91
2022/11/16 08:26:53;;;;;;;110.78;25.88;;;;;;;11.64;59.82;98681.28;4361952;32;20114;-91
2022/11/16 08:29:18;;;;;;;143.07;25.42;;;;;;;11.74;59.82;98685.06;4387029;32;20456;-91
2022/11/16 08:31:44;;;;;;;227.93;27.20;;;;;;;11.72;59.82;98681.72;4375947;32;21575;-91
2022/11/16 08:34:09;;;;;;;105.10;27.27;;;;;;;11.62;59.82;98680.53;4374494;32;20095;-91
2022/11/16 08:36:35;;;;;;;88.53;28.05;;;;;;;11.66;59.82;98682.03;4374923;32;20476;-91
2022/11/16 08:39:00;;;;;;;123.03;26.98;;;;;;;11.68;59.82;98681.03;4374030;32;20122;-91
2022/11/16 08:41:26;;;;;;;166.55;27.42;;;;;;;11.90;59.83;98678.16;4373800;32;20105;-92
2022/11/16 08:43:52;;;;;;;149.62;28.73;;;;;;;11.83;59.83;98674.19;4386705;32;20492;-92
2022/11/16 08:46:18;;;;;;;106.40;28.08;;;;;;;11.84;59.83;98669.81;4374234;32;20177;-91
2022/11/16 08:48:44;;;;;;;133.63;27.90;;;;;;;11.91;59.84;98666.78;4376218;32;20087;-92
2022/11/16 08:51:12;;;;;;;93.97;27.37;;;;;;;11.94;59.83;98669.22;4389451;32;20388;-91
2022/11/16 08:53:37;;;;;;;72.85;25.10;;;;;;;11.94;59.83;98676.22;4376845;32;20185;-92
2022/11/16 08:56:07;;;;;;;101.22;26.80;;;;;;;12.02;59.83;98667.97;4376889;32;20520;-92
2022/11/16 08:58:33;;;;;;;;;;;;;;;11.87;59.83;98673.09;4365102;32;20102;-92
2022/11/16 09:00:58;;;;;;;135.35;26.70;;;;;;;11.98;59.84;98660.31;4375263;32;19970;-92
2022/11/16 09:03:24;;;;;;;168.93;27.55;;;;;;;12.17;59.85;98661.91;4376812;32;20154;-92
2022/11/16 09:05:49;;;;;;;158.77;28.20;;;;;;;11.92;59.84;98659.81;4374144;32;20396;-92
2022/11/16 09:08:14;;;;;;;84.50;25.52;;;;;;;12.00;59.84;98660.22;4376198;32;20157;-92
2022/11/16 09:10:40;;;;;;;141.55;28.33;;;;;;;11.88;59.83;98660.91;4351757;32;20143;-93
2022/11/16 09:13:05;;;;;;;110.05;27.83;;;;;;;11.87;59.83;98661.84;4376213;32;24374;-92
2022/11/16 09:15:31;;;;;;;96.05;27.02;;;;;;;12.05;59.84;98654.75;4364145;32;20154;-92
2022/11/16 09:17:56;;;;;;;103.85;28.27;;;;;;;12.13;59.84;98653.41;4376659;32;20134;-92
2022/11/16 09:20:21;;;;;;;107.93;26.67;;;;;;;12.12;59.84;98643.91;4361907;32;20135;-93
2022/11/16 09:22:47;;;;;;;125.72;35.70;;;;;;;12.03;59.84;98643.56;4361911;32;20159;-92
2022/11/16 09:25:14;;;;;;;137.93;35.53;;;;;;;12.03;59.84;98646.16;4361827;32;20556;-92
2022/11/16 09:27:39;;;;;;;135.35;29.52;;;;;;;11.99;59.84;98638.50;4361748;32;20094;-92
2022/11/16 09:30:05;;;;;;;95.90;37.38;;;;;;;11.99;59.84;98646.34;4364019;32;20421;-91
2022/11/16 09:32:30;;;;;;;80.55;28.50;;;;;;;11.94;59.83;98650.13;4386682;32;20104;-92
2022/11/16 09:34:56;;;;;;;103.68;27.45;;;;;;;12.10;59.84;98647.53;4362385;32;20173;-91
2022/11/16 09:37:21;;;;;;;114.32;27.45;;;;;;;12.11;59.84;98646.59;4361678;32;20099;-92
2022/11/16 09:39:47;;;;;;;108.55;27.90;;;;;;;11.99;59.84;98650.72;4373434;32;30239;-92
2022/11/16 09:42:35;;;;;;;117.03;29.58;;;;;;;12.02;59.84;98647.94;4374263;32;20174;-92
2022/11/16 09:45:07;;;;;;;108.55;26.80;;;;;;;12.08;59.84;98642.41;4362072;32;20122;-92
2022/11/16 09:47:48;;;;;;;89.87;28.85;;;;;;;12.03;59.84;98627.91;4364607;32;20099;-93
2022/11/16 09:51:00;;;;;;;90.93;26.73;;;;;;;11.96;59.83;98625.66;4376370;32;20158;-91
2022/11/16 09:53:32;;;;;;;78.22;26.33;;;;;;;11.93;59.83;98628.44;4387359;32;20104;-92
2022/11/16 09:56:17;;;;;;;100.43;27.75;;;;;;;11.86;59.83;98619.28;4388979;32;20126;-93
2022/11/16 09:58:49;;;;;;;134.12;28.38;;;;;;;11.88;59.83;98617.41;4372771;32;20110;-92
2022/11/16 10:01:21;;;;;;;111.32;28.15;;;;;;;11.93;59.83;98611.94;4358482;32;20103;-92
2022/11/16 10:03:49;;;;;;;101.90;31.55;;;;;;;11.85;59.83;98608.94;4348947;32;20111;-92
2022/11/16 10:06:39;;;;;;;88.05;29.33;;;;;;;11.95;59.83;98605.72;4348966;32;20122;-93
2022/11/16 10:09:04;;;;;;;76.22;29.20;;;;;;;11.98;59.84;98597.72;4337376;32;20099;-92
2022/11/16 10:11:36;;;;;;;83.20;31.10;;;;;;;12.05;59.84;98592.97;4361245;32;20083;-93
2022/11/16 10:14:16;;;;;;;102.40;30.67;;;;;;;12.09;59.84;98601.50;4346437;33;21019;-93
2022/11/16 10:17:35;;;;;;;92.32;29.37;;;;;;;12.07;59.84;98600.75;4371526;32;20107;-92
2022/11/16 10:20:09;;;;;;;90.53;27.25;;;;;;;12.24;59.85;98596.25;4315919;33;20175;-92
2022/11/16 10:23:04;;;;;;;77.65;27.55;;;;;;;12.22;59.85;98589.44;4354086;32;20103;-93
2022/11/16 10:25:40;;;;;;;76.25;27.13;;;;;;;12.21;59.85;98591.19;4347344;32;20142;-92
2022/11/16 10:28:44;;;;;;;87.93;31.60;;;;;;;12.22;59.85;98586.81;4337123;32;20118;-92
2022/11/16 10:31:29;;;;;;;73.55;26.02;;;;;;;12.10;59.84;98579.72;4370756;32;20098;-91
2022/11/16 10:34:00;;;;;;;71.57;28.12;;;;;;;12.11;59.84;98577.00;4350553;32;21044;-92
2022/11/16 10:36:26;;;;;;;80.60;29.12;;;;;;;12.14;59.85;98569.00;4346272;33;20111;-92
2022/11/16 10:38:53;;;;;;;79.00;27.15;;;;;;;12.14;59.85;98565.56;4348005;32;20111;-92
2022/11/16 10:41:40;;;;;;;74.80;26.95;;;;;;;12.14;59.85;98565.56;4336548;32;20523;-92
2022/11/16 10:44:13;;;;;;;81.80;29.80;;;;;;;12.14;59.85;98558.56;4338816;32;20094;-93
2022/11/16 10:46:40;;;;;;;79.57;28.05;;;;;;;12.06;59.84;98552.94;4348505;32;20163;-93
2022/11/16 10:49:26;;;;;;;78.43;27.33;;;;;;;11.94;59.84;98541.44;4344509;32;20071;-92
2022/11/16 10:51:51;;;;;;;86.05;28.83;;;;;;;11.99;59.84;98539.41;4333495;32;20099;-92
2022/11/16 10:54:17;;;;;;;90.30;28.90;;;;;;;12.03;59.84;98532.25;4363548;32;20145;-93
2022/11/16 10:56:51;;;;;;;79.85;28.55;;;;;;;12.09;59.84;98539.75;4360783;32;20460;-93
2022/11/16 10:59:19;;;;;;;80.22;28.45;;;;;;;11.93;59.83;98533.72;4348600;32;20178;-92
2022/11/16 11:01:49;;;;;;;96.90;29.42;;;;;;;12.07;59.84;98535.53;4371218;32;20065;-93
2022/11/16 11:04:22;;;;;;;101.55;30.83;;;;;;;12.23;59.85;98531.94;4377363;32;20102;-92
2022/11/16 11:06:50;;;;;;;89.95;27.67;;;;;;;12.32;59.85;98525.38;4387776;32;20119;-92
2022/11/16 11:09:27;;;;;;;84.15;29.25;;;;;;;12.32;59.85;98527.12;4362680;32;20503;-92
2022/11/16 11:15:01;;;;;;;94.20;29.65;;;;;;;12.21;59.84;98522.53;4379199;32;20791;-92
2022/11/16 11:17:26;;;;;;;80.03;29.40;;;;;;;11.96;59.83;98521.34;4387610;32;20157;-92
2022/11/16 11:20:04;;;;;;;86.37;29.17;;;;;;;12.03;59.84;98520.97;4364834;32;20134;-92
2022/11/16 11:22:31;;;;;;;96.00;30.73;;;;;;;11.96;59.83;98520.50;4387577;32;20095;-92
2022/11/16 11:24:57;;;;;;;84.95;29.17;;;;;;;12.01;59.84;98509.78;4364997;32;20095;-93
2022/11/16 11:27:23;;;;;;;81.55;29.35;;;;;;;11.95;59.83;98505.78;4375407;32;20115;-92
2022/11/16 11:29:53;;;;;;;80.20;28.77;;;;;;;11.89;59.82;98504.38;4363116;32;20133;-92
2022/11/16 11:32:19;;;;;;;82.78;27.17;;;;;;;12.03;59.84;98495.72;4375390;32;20064;-93
2022/11/16 11:34:46;;;;;;;85.55;30.12;;;;;;;12.03;59.84;98490.50;4377330;32;22080;-93
2022/11/16 11:37:16;;;;;;;78.37;28.85;;;;;;;12.14;59.85;98482.94;4366861;32;20526;-92
2022/11/16 11:39:41;;;;;;;78.60;29.02;;;;;;;12.17;59.85;98482.75;4365657;32;20106;-93
2022/11/16 11:42:12;;;;;;;79.65;29.12;;;;;;;12.19;59.84;98478.28;4352625;32;20120;-93
2022/11/16 11:44:56;;;;;;;69.32;26.40;;;;;;;12.10;59.84;98477.97;4377708;32;20095;-92
2022/11/16 11:47:48;;;;;;;79.90;28.33;;;;;;;12.08;59.84;98485.91;4377573;32;20141;-93
2022/11/16 11:50:20;;;;;;;75.00;28.10;;;;;;;12.07;59.84;98475.56;4364728;32;20112;-93
2022/11/16 11:52:55;;;;;;;73.93;28.38;;;;;;;12.24;59.86;98480.59;4377589;32;20125;-92
2022/11/16 11:55:20;;;;;;;70.87;26.77;;;;;;;12.10;59.84;98485.81;4352952;32;20206;-92
2022/11/16 11:57:47;;;;;;;78.40;27.37;;;;;;;12.20;59.84;98485.16;4362518;32;20096;-93
2022/11/16 12:00:13;;;;;;;72.40;26.17;;;;;;;12.20;59.84;98484.31;4362405;32;20115;-93
2022/11/16 12:02:46;;;;;;;73.70;27.50;;;;;;;12.11;59.84;98482.28;4357149;32;20133;-93
2022/11/16 12:05:36;;;;;;;69.75;25.80;;;;;;;12.15;59.85;98474.16;4389814;32;20161;-92
2022/11/16 12:08:20;;;;;;;70.47;27.08;;;;;;;12.31;59.86;98466.28;4376159;32;20117;-93
2022/11/16 12:10:45;;;;;;;75.05;27.35;;;;;;;12.28;59.85;98469.06;4387846;32;20121;-93
2022/11/16 12:13:35;;;;;;;66.28;27.52;;;;;;;12.27;59.85;98465.59;4387433;32;20139;-93
2022/11/16 12:16:18;;;;;;;62.70;25.15;;;;;;;12.20;59.84;98464.28;4365824;32;20124;-92
2022/11/16 12:18:55;;;;;;;64.15;24.17;;;;;;;12.44;59.86;98464.59;4376316;32;20169;-93
2022/11/16 12:21:48;;;;;;;72.55;24.55;;;;;;;12.35;59.85;98465.16;4388159;32;20098;-93